Terminal Aerodrome Forecast
Issued by NWS Chicago, IL

Home | Current Version | Previous Version | Text Only | Print | Product List | Glossary On
Versions: 1 2 3 4 5 6 7 8 9 10 11 12 13 14 15 16 17 18 19 20 21 22 23 24 25 26 27 28 29 30
000
FTUS43 KLOT 301100
TAFRFD
TAF
KRFD 301120Z 3012/3112 VRB02KT P6SM BKN250
     FM301300 21005KT P6SM SCT050 BKN250
     FM301900 27008KT P6SM SCT040 BKN100
     FM310100 25005KT P6SM SCT012 OVC040
     FM310200 33010KT P6SM VCSH OVC012
     FM310800 33014G24KT P6SM SCT012 BKN035=

USA.gov is the U.S. government's official web portal to all federal, state and local government web resources and services.